sensor_id;sensor_type;location;lat;lon;timestamp;temperature;humidity
76759;DHT22;65701;45.588;5.186;2023-03-14T06:17:10;10.87;74.46
76759;DHT22;65701;45.588;5.186;2023-03-14T06:19:35;10.89;74.32
76759;DHT22;65701;45.588;5.186;2023-03-14T06:22:01;10.83;74.19
76759;DHT22;65701;45.588;5.186;2023-03-14T06:24:26;10.80;74.26
76759;DHT22;65701;45.588;5.186;2023-03-14T06:26:52;10.79;74.36
76759;DHT22;65701;45.588;5.186;2023-03-14T06:29:17;10.76;74.35
76759;DHT22;65701;45.588;5.186;2023-03-14T06:31:42;10.76;74.48
76759;DHT22;65701;45.588;5.186;2023-03-14T06:34:08;10.80;74.62
76759;DHT22;65701;45.588;5.186;2023-03-14T06:36:34;10.77;74.86
76759;DHT22;65701;45.588;5.186;2023-03-14T06:38:59;10.75;74.97
76759;DHT22;65701;45.588;5.186;2023-03-14T06:41:25;10.72;74.95
76759;DHT22;65701;45.588;5.186;2023-03-14T06:43:51;10.72;75.05
76759;DHT22;65701;45.588;5.186;2023-03-14T06:46:17;10.69;75.44
76759;DHT22;65701;45.588;5.186;2023-03-14T06:48:42;10.62;75.69
76759;DHT22;65701;45.588;5.186;2023-03-14T06:51:08;10.68;75.84
76759;DHT22;65701;45.588;5.186;2023-03-14T06:53:33;10.58;76.16
76759;DHT22;65701;45.588;5.186;2023-03-14T06:55:59;10.65;76.37
76759;DHT22;65701;45.588;5.186;2023-03-14T06:58:25;10.65;76.52
76759;DHT22;65701;45.588;5.186;2023-03-14T07:00:52;10.73;76.35
76759;DHT22;65701;45.588;5.186;2023-03-14T07:03:18;10.76;76.39
76759;DHT22;65701;45.588;5.186;2023-03-14T07:05:43;10.72;76.51
76759;DHT22;65701;45.588;5.186;2023-03-14T07:08:09;10.56;76.66
76759;DHT22;65701;45.588;5.186;2023-03-14T07:10:35;10.53;76.89
76759;DHT22;65701;45.588;5.186;2023-03-14T07:13:00;10.52;77.33
76759;DHT22;65701;45.588;5.186;2023-03-14T07:15:26;10.58;77.57
76759;DHT22;65701;45.588;5.186;2023-03-14T07:17:51;10.52;77.52
76759;DHT22;65701;45.588;5.186;2023-03-14T07:20:17;10.53;77.75
76759;DHT22;65701;45.588;5.186;2023-03-14T07:22:42;10.53;77.79
76759;DHT22;65701;45.588;5.186;2023-03-14T07:25:08;10.60;78.09
76759;DHT22;65701;45.588;5.186;2023-03-14T07:27:37;10.60;77.84
76759;DHT22;65701;45.588;5.186;2023-03-14T07:30:03;10.62;77.62
76759;DHT22;65701;45.588;5.186;2023-03-14T07:32:29;10.66;77.43
76759;DHT22;65701;45.588;5.186;2023-03-14T07:34:54;10.69;77.23
76759;DHT22;65701;45.588;5.186;2023-03-14T07:37:20;10.72;77.07
76759;DHT22;65701;45.588;5.186;2023-03-14T07:39:45;10.68;77.44
76759;DHT22;65701;45.588;5.186;2023-03-14T07:42:11;10.68;77.33
76759;DHT22;65701;45.588;5.186;2023-03-14T07:44:37;10.65;77.77
76759;DHT22;65701;45.588;5.186;2023-03-14T07:47:02;10.65;78.00
76759;DHT22;65701;45.588;5.186;2023-03-14T07:49:28;10.65;78.09
76759;DHT22;65701;45.588;5.186;2023-03-14T07:51:53;10.60;78.04
76759;DHT22;65701;45.588;5.186;2023-03-14T07:54:19;10.58;78.52
76759;DHT22;65701;45.588;5.186;2023-03-14T07:56:45;10.59;78.56
76759;DHT22;65701;45.588;5.186;2023-03-14T07:59:10;10.60;78.57
76759;DHT22;65701;45.588;5.186;2023-03-14T08:01:37;10.60;78.43
76759;DHT22;65701;45.588;5.186;2023-03-14T08:04:03;10.65;78.68
76759;DHT22;65701;45.588;5.186;2023-03-14T08:06:29;10.66;78.32
76759;DHT22;65701;45.588;5.186;2023-03-14T08:08:55;10.68;78.46
76759;DHT22;65701;45.588;5.186;2023-03-14T08:11:20;10.65;78.49
76759;DHT22;65701;45.588;5.186;2023-03-14T08:13:46;10.62;78.65
76759;DHT22;65701;45.588;5.186;2023-03-14T08:16:16;10.62;79.17
76759;DHT22;65701;45.588;5.186;2023-03-14T08:18:42;10.63;79.33
76759;DHT22;65701;45.588;5.186;2023-03-14T08:21:08;10.72;79.25
76759;DHT22;65701;45.588;5.186;2023-03-14T08:23:33;10.66;79.18
76759;DHT22;65701;45.588;5.186;2023-03-14T08:25:59;10.60;79.47
76759;DHT22;65701;45.588;5.186;2023-03-14T08:28:24;10.63;79.50
76759;DHT22;65701;45.588;5.186;2023-03-14T08:30:56;10.73;79.71
76759;DHT22;65701;45.588;5.186;2023-03-14T08:33:23;10.68;79.77
76759;DHT22;65701;45.588;5.186;2023-03-14T08:35:51;10.73;79.53
76759;DHT22;65701;45.588;5.186;2023-03-14T08:38:16;10.72;79.38
76759;DHT22;65701;45.588;5.186;2023-03-14T08:40:41;10.83;79.01
76759;DHT22;65701;45.588;5.186;2023-03-14T08:43:07;10.76;78.90
76759;DHT22;65701;45.588;5.186;2023-03-14T08:45:32;10.89;78.93
76759;DHT22;65701;45.588;5.186;2023-03-14T08:47:58;10.89;79.10
76759;DHT22;65701;45.588;5.186;2023-03-14T08:50:24;10.93;79.15
76759;DHT22;65701;45.588;5.186;2023-03-14T08:52:50;10.92;79.15
76759;DHT22;65701;45.588;5.186;2023-03-14T08:55:15;10.94;79.11
76759;DHT22;65701;45.588;5.186;2023-03-14T08:57:41;11.00;79.11
76759;DHT22;65701;45.588;5.186;2023-03-14T09:00:07;10.97;79.10
76759;DHT22;65701;45.588;5.186;2023-03-14T09:02:39;10.96;79.28
76759;DHT22;65701;45.588;5.186;2023-03-14T09:05:05;11.00;79.27
76759;DHT22;65701;45.588;5.186;2023-03-14T09:07:30;10.99;79.10
76759;DHT22;65701;45.588;5.186;2023-03-14T09:09:56;11.00;79.33
76759;DHT22;65701;45.588;5.186;2023-03-14T09:12:21;10.93;79.11
76759;DHT22;65701;45.588;5.186;2023-03-14T09:14:47;10.97;78.64
76759;DHT22;65701;45.588;5.186;2023-03-14T09:17:12;10.97;78.37
76759;DHT22;65701;45.588;5.186;2023-03-14T09:19:38;11.06;78.40
76759;DHT22;65701;45.588;5.186;2023-03-14T09:22:03;11.04;78.04
76759;DHT22;65701;45.588;5.186;2023-03-14T09:24:29;11.00;77.43
76759;DHT22;65701;45.588;5.186;2023-03-14T09:26:55;11.01;77.18
76759;DHT22;65701;45.588;5.186;2023-03-14T09:29:22;10.99;77.03
76759;DHT22;65701;45.588;5.186;2023-03-14T09:31:47;10.99;76.94
76759;DHT22;65701;45.588;5.186;2023-03-14T09:34:13;11.06;77.09
76759;DHT22;65701;45.588;5.186;2023-03-14T09:36:38;11.03;77.25
76759;DHT22;65701;45.588;5.186;2023-03-14T09:39:05;10.97;76.53
76759;DHT22;65701;45.588;5.186;2023-03-14T09:41:33;11.00;75.83
76759;DHT22;65701;45.588;5.186;2023-03-14T09:44:13;10.86;74.95
76759;DHT22;65701;45.588;5.186;2023-03-14T09:46:41;10.90;73.94
76759;DHT22;65701;45.588;5.186;2023-03-14T09:52:32;10.92;72.63
76759;DHT22;65701;45.588;5.186;2023-03-14T09:55:07;10.90;72.94
76759;DHT22;65701;45.588;5.186;2023-03-14T09:57:35;11.00;72.78
76759;DHT22;65701;45.588;5.186;2023-03-14T10:00:12;10.96;72.70
76759;DHT22;65701;45.588;5.186;2023-03-14T10:02:41;11.04;72.21
76759;DHT22;65701;45.588;5.186;2023-03-14T10:05:18;11.00;72.02
76759;DHT22;65701;45.588;5.186;2023-03-14T10:07:44;11.04;72.13
76759;DHT22;65701;45.588;5.186;2023-03-14T10:10:19;11.00;71.70
76759;DHT22;65701;45.588;5.186;2023-03-14T10:15:26;10.87;71.63
76759;DHT22;65701;45.588;5.186;2023-03-14T10:17:51;10.77;72.13
76759;DHT22;65701;45.588;5.186;2023-03-14T10:20:35;10.59;72.64
76759;DHT22;65701;45.588;5.186;2023-03-14T10:25:41;10.59;73.66
76759;DHT22;65701;45.588;5.186;2023-03-14T10:28:27;10.53;73.86
76759;DHT22;65701;45.588;5.186;2023-03-14T10:30:54;10.59;73.88
76759;DHT22;65701;45.588;5.186;2023-03-14T10:33:23;10.55;73.83
76759;DHT22;65701;45.588;5.186;2023-03-14T10:35:57;10.62;73.67
76759;DHT22;65701;45.588;5.186;2023-03-14T10:38:27;10.63;73.73
76759;DHT22;65701;45.588;5.186;2023-03-14T10:40:55;10.68;73.82
76759;DHT22;65701;45.588;5.186;2023-03-14T10:43:26;10.77;73.94
76759;DHT22;65701;45.588;5.186;2023-03-14T10:46:01;10.81;73.91
76759;DHT22;65701;45.588;5.186;2023-03-14T10:48:38;10.92;73.87
76759;DHT22;65701;45.588;5.186;2023-03-14T10:53:49;11.03;73.60
76759;DHT22;65701;45.588;5.186;2023-03-14T10:56:20;11.04;73.37
76759;DHT22;65701;45.588;5.186;2023-03-14T10:58:48;11.08;73.50
76759;DHT22;65701;45.588;5.186;2023-03-14T11:11:47;11.35;73.23
76759;DHT22;65701;45.588;5.186;2023-03-14T11:14:18;11.38;73.23
76759;DHT22;65701;45.588;5.186;2023-03-14T11:21:59;11.59;72.59
76759;DHT22;65701;45.588;5.186;2023-03-14T11:24:39;11.66;72.21
76759;DHT22;65701;45.588;5.186;2023-03-14T11:27:22;11.75;72.11
76759;DHT22;65701;45.588;5.186;2023-03-14T11:30:24;11.85;72.66
76759;DHT22;65701;45.588;5.186;2023-03-14T11:35:27;12.03;72.46
76759;DHT22;65701;45.588;5.186;2023-03-14T11:38:12;12.13;72.13
76759;DHT22;65701;45.588;5.186;2023-03-14T11:40:39;12.21;71.48
76759;DHT22;65701;45.588;5.186;2023-03-14T11:45:38;12.35;71.30
76759;DHT22;65701;45.588;5.186;2023-03-14T11:50:52;12.41;70.61
76759;DHT22;65701;45.588;5.186;2023-03-14T11:55:58;12.23;69.84
76759;DHT22;65701;45.588;5.186;2023-03-14T11:58:30;12.16;69.65
76759;DHT22;65701;45.588;5.186;2023-03-14T12:01:03;12.17;70.12
76759;DHT22;65701;45.588;5.186;2023-03-14T12:03:34;12.07;69.79
76759;DHT22;65701;45.588;5.186;2023-03-14T12:06:22;11.73;69.90
76759;DHT22;65701;45.588;5.186;2023-03-14T12:08:59;11.85;70.15
76759;DHT22;65701;45.588;5.186;2023-03-14T12:16:47;11.68;69.43
76759;DHT22;65701;45.588;5.186;2023-03-14T12:19:26;11.58;69.61
76759;DHT22;65701;45.588;5.186;2023-03-14T12:21:56;11.51;69.48
76759;DHT22;65701;45.588;5.186;2023-03-14T12:24:26;11.66;69.50
76759;DHT22;65701;45.588;5.186;2023-03-14T12:26:56;11.73;69.58
76759;DHT22;65701;45.588;5.186;2023-03-14T12:29:22;11.75;69.31
76759;DHT22;65701;45.588;5.186;2023-03-14T12:32:21;11.63;69.15
76759;DHT22;65701;45.588;5.186;2023-03-14T12:34:47;11.94;69.25
76759;DHT22;65701;45.588;5.186;2023-03-14T12:37:25;12.01;69.49
76759;DHT22;65701;45.588;5.186;2023-03-14T12:42:40;12.14;68.64
76759;DHT22;65701;45.588;5.186;2023-03-14T12:45:29;12.18;68.49
76759;DHT22;65701;45.588;5.186;2023-03-14T12:48:21;12.27;68.58
76759;DHT22;65701;45.588;5.186;2023-03-14T12:50:56;12.24;67.97
76759;DHT22;65701;45.588;5.186;2023-03-14T13:01:48;12.35;67.11
76759;DHT22;65701;45.588;5.186;2023-03-14T13:04:18;12.38;67.22
76759;DHT22;65701;45.588;5.186;2023-03-14T13:06:58;12.44;67.72
76759;DHT22;65701;45.588;5.186;2023-03-14T13:12:14;12.27;67.77
76759;DHT22;65701;45.588;5.186;2023-03-14T13:14:45;12.21;67.84
76759;DHT22;65701;45.588;5.186;2023-03-14T13:17:15;12.17;68.60
76759;DHT22;65701;45.588;5.186;2023-03-14T13:19:41;12.13;68.89
76759;DHT22;65701;45.588;5.186;2023-03-14T13:22:23;12.17;69.16
76759;DHT22;65701;45.588;5.186;2023-03-14T13:24:57;12.12;69.71
76759;DHT22;65701;45.588;5.186;2023-03-14T13:27:22;11.79;70.65
76759;DHT22;65701;45.588;5.186;2023-03-14T13:29:50;11.72;71.11
76759;DHT22;65701;45.588;5.186;2023-03-14T13:32:21;11.61;71.33
76759;DHT22;65701;45.588;5.186;2023-03-14T13:34:47;11.59;71.29
76759;DHT22;65701;45.588;5.186;2023-03-14T13:37:20;11.77;71.19
76759;DHT22;65701;45.588;5.186;2023-03-14T13:39:57;11.90;71.36
76759;DHT22;65701;45.588;5.186;2023-03-14T13:42:27;12.04;71.27
76759;DHT22;65701;45.588;5.186;2023-03-14T13:44:55;12.07;71.00
76759;DHT22;65701;45.588;5.186;2023-03-14T13:47:23;12.14;70.52
76759;DHT22;65701;45.588;5.186;2023-03-14T13:49:50;12.06;70.04
76759;DHT22;65701;45.588;5.186;2023-03-14T13:52:37;11.85;69.69
76759;DHT22;65701;45.588;5.186;2023-03-14T13:55:05;11.41;68.65
76759;DHT22;65701;45.588;5.186;2023-03-14T13:57:48;11.07;68.13
76759;DHT22;65701;45.588;5.186;2023-03-14T14:00:25;10.90;68.25
76759;DHT22;65701;45.588;5.186;2023-03-14T14:02:55;10.87;68.14
76759;DHT22;65701;45.588;5.186;2023-03-14T14:05:22;10.92;68.46
76759;DHT22;65701;45.588;5.186;2023-03-14T14:07:49;10.94;68.53
76759;DHT22;65701;45.588;5.186;2023-03-14T14:10:16;11.00;68.37
76759;DHT22;65701;45.588;5.186;2023-03-14T14:12:56;11.11;68.75
76759;DHT22;65701;45.588;5.186;2023-03-14T14:15:27;11.21;69.02
76759;DHT22;65701;45.588;5.186;2023-03-14T14:17:56;11.36;68.74
76759;DHT22;65701;45.588;5.186;2023-03-14T14:20:31;11.45;68.36
76759;DHT22;65701;45.588;5.186;2023-03-14T14:23:05;11.55;68.03
76759;DHT22;65701;45.588;5.186;2023-03-14T14:25:32;11.66;67.93
76759;DHT22;65701;45.588;5.186;2023-03-14T14:27:58;11.72;67.53
76759;DHT22;65701;45.588;5.186;2023-03-14T14:30:32;11.76;67.08
76759;DHT22;65701;45.588;5.186;2023-03-14T14:33:19;11.79;66.70
76759;DHT22;65701;45.588;5.186;2023-03-14T14:35:56;11.77;66.37
76759;DHT22;65701;45.588;5.186;2023-03-14T14:38:22;11.77;66.53
76759;DHT22;65701;45.588;5.186;2023-03-14T14:40:51;11.83;66.88
76759;DHT22;65701;45.588;5.186;2023-03-14T14:43:23;11.83;66.40
76759;DHT22;65701;45.588;5.186;2023-03-14T14:45:51;11.75;66.11
76759;DHT22;65701;45.588;5.186;2023-03-14T14:48:23;11.83;65.72
76759;DHT22;65701;45.588;5.186;2023-03-14T14:50:55;11.89;65.90
76759;DHT22;65701;45.588;5.186;2023-03-14T14:53:31;11.91;65.93
76759;DHT22;65701;45.588;5.186;2023-03-14T14:56:04;12.00;66.02
76759;DHT22;65701;45.588;5.186;2023-03-14T14:58:36;11.98;65.75
76759;DHT22;65701;45.588;5.186;2023-03-14T15:01:23;11.76;65.19
76759;DHT22;65701;45.588;5.186;2023-03-14T15:03:52;11.85;65.16
76759;DHT22;65701;45.588;5.186;2023-03-14T15:06:19;11.86;65.25
76759;DHT22;65701;45.588;5.186;2023-03-14T15:08:47;11.85;65.17
76759;DHT22;65701;45.588;5.186;2023-03-14T15:11:20;11.79;64.99
76759;DHT22;65701;45.588;5.186;2023-03-14T15:13:48;11.79;64.86
76759;DHT22;65701;45.588;5.186;2023-03-14T15:16:16;11.80;65.10
76759;DHT22;65701;45.588;5.186;2023-03-14T15:18:42;11.73;65.16
76759;DHT22;65701;45.588;5.186;2023-03-14T15:21:11;11.76;64.93
76759;DHT22;65701;45.588;5.186;2023-03-14T15:23:36;11.73;65.01
76759;DHT22;65701;45.588;5.186;2023-03-14T15:26:02;11.72;63.99
76759;DHT22;65701;45.588;5.186;2023-03-14T15:28:30;11.70;64.01
76759;DHT22;65701;45.588;5.186;2023-03-14T15:30:57;11.66;63.33
76759;DHT22;65701;45.588;5.186;2023-03-14T15:33:25;11.62;61.90
76759;DHT22;65701;45.588;5.186;2023-03-14T15:35:51;11.66;61.83
76759;DHT22;65701;45.588;5.186;2023-03-14T15:38:20;11.62;61.81
76759;DHT22;65701;45.588;5.186;2023-03-14T15:40:50;11.65;61.92
76759;DHT22;65701;45.588;5.186;2023-03-14T15:43:16;11.63;61.52
76759;DHT22;65701;45.588;5.186;2023-03-14T15:45:42;11.63;61.30
76759;DHT22;65701;45.588;5.186;2023-03-14T15:48:15;11.54;60.91
76759;DHT22;65701;45.588;5.186;2023-03-14T15:50:42;11.51;60.31
76759;DHT22;65701;45.588;5.186;2023-03-14T15:53:08;11.55;60.16
76759;DHT22;65701;45.588;5.186;2023-03-14T15:55:33;11.54;60.45
76759;DHT22;65701;45.588;5.186;2023-03-14T15:57:59;11.58;60.26
76759;DHT22;65701;45.588;5.186;2023-03-14T16:00:25;11.59;60.49
76759;DHT22;65701;45.588;5.186;2023-03-14T16:02:51;11.59;60.23
76759;DHT22;65701;45.588;5.186;2023-03-14T16:05:17;11.59;59.97
76759;DHT22;65701;45.588;5.186;2023-03-14T16:07:45;11.49;60.41
76759;DHT22;65701;45.588;5.186;2023-03-14T16:10:12;11.52;60.78
76759;DHT22;65701;45.588;5.186;2023-03-14T16:12:38;11.43;61.22
76759;DHT22;65701;45.588;5.186;2023-03-14T16:15:04;11.34;61.42
76759;DHT22;65701;45.588;5.186;2023-03-14T16:17:31;11.27;61.67
76759;DHT22;65701;45.588;5.186;2023-03-14T16:19:57;11.24;61.85
76759;DHT22;65701;45.588;5.186;2023-03-14T16:22:23;11.21;62.07
76759;DHT22;65701;45.588;5.186;2023-03-14T16:24:48;11.18;62.23
76759;DHT22;65701;45.588;5.186;2023-03-14T16:27:14;11.14;62.41
76759;DHT22;65701;45.588;5.186;2023-03-14T16:29:41;11.10;62.75
76759;DHT22;65701;45.588;5.186;2023-03-14T16:32:06;11.14;62.90
76759;DHT22;65701;45.588;5.186;2023-03-14T16:34:32;11.13;63.05
76759;DHT22;65701;45.588;5.186;2023-03-14T16:36:57;11.11;62.99
76759;DHT22;65701;45.588;5.186;2023-03-14T16:39:23;11.11;63.03
76759;DHT22;65701;45.588;5.186;2023-03-14T16:41:48;11.10;63.02
76759;DHT22;65701;45.588;5.186;2023-03-14T16:44:14;11.10;63.05
76759;DHT22;65701;45.588;5.186;2023-03-14T16:46:39;11.10;63.30
76759;DHT22;65701;45.588;5.186;2023-03-14T16:49:05;11.11;63.37
76759;DHT22;65701;45.588;5.186;2023-03-14T16:51:31;11.11;63.46
76759;DHT22;65701;45.588;5.186;2023-03-14T16:53:57;11.11;63.42
76759;DHT22;65701;45.588;5.186;2023-03-14T16:56:22;11.08;63.59
76759;DHT22;65701;45.588;5.186;2023-03-14T16:58:49;11.11;63.69
76759;DHT22;65701;45.588;5.186;2023-03-14T17:01:16;11.10;63.64
76759;DHT22;65701;45.588;5.186;2023-03-14T17:03:45;11.11;63.51
76759;DHT22;65701;45.588;5.186;2023-03-14T17:06:13;11.13;63.40
76759;DHT22;65701;45.588;5.186;2023-03-14T17:08:39;11.11;63.37
76759;DHT22;65701;45.588;5.186;2023-03-14T17:11:05;11.04;63.17
76759;DHT22;65701;45.588;5.186;2023-03-14T17:13:32;11.04;63.49
76759;DHT22;65701;45.588;5.186;2023-03-14T17:15:59;11.01;63.48
76759;DHT22;65701;45.588;5.186;2023-03-14T17:18:25;10.97;63.66
76759;DHT22;65701;45.588;5.186;2023-03-14T17:20:52;10.97;63.75
76759;DHT22;65701;45.588;5.186;2023-03-14T17:23:19;10.80;63.66
76759;DHT22;65701;45.588;5.186;2023-03-14T17:25:48;10.63;63.30
76759;DHT22;65701;45.588;5.186;2023-03-14T17:28:19;10.56;62.94
76759;DHT22;65701;45.588;5.186;2023-03-14T17:30:45;10.52;62.78
76759;DHT22;65701;45.588;5.186;2023-03-14T17:33:11;10.44;62.83
76759;DHT22;65701;45.588;5.186;2023-03-14T17:35:37;10.44;62.69
76759;DHT22;65701;45.588;5.186;2023-03-14T17:38:03;10.41;62.49
76759;DHT22;65701;45.588;5.186;2023-03-14T17:40:28;10.45;62.79
76759;DHT22;65701;45.588;5.186;2023-03-14T17:42:53;10.46;62.85
76759;DHT22;65701;45.588;5.186;2023-03-14T17:45:19;10.41;62.89
76759;DHT22;65701;45.588;5.186;2023-03-14T17:47:45;10.48;62.98
76759;DHT22;65701;45.588;5.186;2023-03-14T17:50:12;10.48;63.23
76759;DHT22;65701;45.588;5.186;2023-03-14T17:52:37;10.48;63.55
76759;DHT22;65701;45.588;5.186;2023-03-14T17:55:05;10.49;63.85
76759;DHT22;65701;45.588;5.186;2023-03-14T17:57:33;10.48;64.28
76759;DHT22;65701;45.588;5.186;2023-03-14T18:00:00;10.45;64.52
76759;DHT22;65701;45.588;5.186;2023-03-14T18:02:26;10.42;64.77
76759;DHT22;65701;45.588;5.186;2023-03-14T18:04:51;10.38;65.02
76759;DHT22;65701;45.588;5.186;2023-03-14T18:07:18;10.32;65.42
76759;DHT22;65701;45.588;5.186;2023-03-14T18:09:45;10.30;65.58
76759;DHT22;65701;45.588;5.186;2023-03-14T18:12:11;10.22;65.82
76759;DHT22;65701;45.588;5.186;2023-03-14T18:14:37;10.15;66.09
76759;DHT22;65701;45.588;5.186;2023-03-14T18:17:03;10.14;66.47
76759;DHT22;65701;45.588;5.186;2023-03-14T18:19:30;10.13;66.77
76759;DHT22;65701;45.588;5.186;2023-03-14T18:21:56;10.07;66.75
76759;DHT22;65701;45.588;5.186;2023-03-14T18:24:22;10.04;67.00
76759;DHT22;65701;45.588;5.186;2023-03-14T18:26:48;10.05;67.07
76759;DHT22;65701;45.588;5.186;2023-03-14T18:29:14;10.01;67.16
76759;DHT22;65701;45.588;5.186;2023-03-14T18:31:43;10.00;67.40
76759;DHT22;65701;45.588;5.186;2023-03-14T18:34:10;9.94;67.79
76759;DHT22;65701;45.588;5.186;2023-03-14T18:36:36;9.87;68.02
76759;DHT22;65701;45.588;5.186;2023-03-14T18:39:03;9.83;68.12
76759;DHT22;65701;45.588;5.186;2023-03-14T18:41:32;9.82;68.08
76759;DHT22;65701;45.588;5.186;2023-03-14T18:43:59;9.79;68.21
76759;DHT22;65701;45.588;5.186;2023-03-14T18:46:26;9.73;68.23
76759;DHT22;65701;45.588;5.186;2023-03-14T18:48:56;9.69;68.25
76759;DHT22;65701;45.588;5.186;2023-03-14T18:51:23;9.60;68.25
76759;DHT22;65701;45.588;5.186;2023-03-14T18:53:50;9.58;68.25
76759;DHT22;65701;45.588;5.186;2023-03-14T18:56:17;9.48;68.27
76759;DHT22;65701;45.588;5.186;2023-03-14T18:58:43;9.46;68.26
76759;DHT22;65701;45.588;5.186;2023-03-14T19:01:09;9.45;68.46
76759;DHT22;65701;45.588;5.186;2023-03-14T19:03:36;9.42;68.63
76759;DHT22;65701;45.588;5.186;2023-03-14T19:06:04;9.42;68.77
76759;DHT22;65701;45.588;5.186;2023-03-14T19:08:31;9.41;68.86
76759;DHT22;65701;45.588;5.186;2023-03-14T19:11:01;9.39;68.94
76759;DHT22;65701;45.588;5.186;2023-03-14T19:13:28;9.35;69.05
76759;DHT22;65701;45.588;5.186;2023-03-14T19:15:55;9.32;69.05
76759;DHT22;65701;45.588;5.186;2023-03-14T19:18:21;9.27;69.04
76759;DHT22;65701;45.588;5.186;2023-03-14T19:20:59;9.22;69.11
76759;DHT22;65701;45.588;5.186;2023-03-14T19:23:25;9.15;69.28
76759;DHT22;65701;45.588;5.186;2023-03-14T19:25:52;9.14;69.26
76759;DHT22;65701;45.588;5.186;2023-03-14T19:28:18;9.11;69.41
76759;DHT22;65701;45.588;5.186;2023-03-14T19:30:45;9.10;69.50
76759;DHT22;65701;45.588;5.186;2023-03-14T19:33:11;9.07;69.62
76759;DHT22;65701;45.588;5.186;2023-03-14T19:35:37;9.04;70.08
76759;DHT22;65701;45.588;5.186;2023-03-14T19:38:03;9.00;70.10
76759;DHT22;65701;45.588;5.186;2023-03-14T19:40:29;8.99;69.88
76759;DHT22;65701;45.588;5.186;2023-03-14T19:42:54;8.96;69.77
76759;DHT22;65701;45.588;5.186;2023-03-14T19:45:20;8.93;69.87
76759;DHT22;65701;45.588;5.186;2023-03-14T19:47:46;8.80;69.98
76759;DHT22;65701;45.588;5.186;2023-03-14T19:50:12;8.76;69.86
76759;DHT22;65701;45.588;5.186;2023-03-14T19:52:38;8.76;69.91
76759;DHT22;65701;45.588;5.186;2023-03-14T19:55:08;8.69;69.96
76759;DHT22;65701;45.588;5.186;2023-03-14T19:57:34;8.56;70.17
76759;DHT22;65701;45.588;5.186;2023-03-14T20:00:00;8.52;70.24
76759;DHT22;65701;45.588;5.186;2023-03-14T20:02:26;8.49;70.22
76759;DHT22;65701;45.588;5.186;2023-03-14T20:04:51;8.46;70.24
76759;DHT22;65701;45.588;5.186;2023-03-14T20:07:18;8.45;70.31
76759;DHT22;65701;45.588;5.186;2023-03-14T20:09:44;8.48;70.31
76759;DHT22;65701;45.588;5.186;2023-03-14T20:12:10;8.48;70.44
76759;DHT22;65701;45.588;5.186;2023-03-14T20:14:35;8.50;70.53
76759;DHT22;65701;45.588;5.186;2023-03-14T20:17:01;8.48;70.86
76759;DHT22;65701;45.588;5.186;2023-03-14T20:19:26;8.42;71.48
76759;DHT22;65701;45.588;5.186;2023-03-14T20:21:52;8.42;71.45
76759;DHT22;65701;45.588;5.186;2023-03-14T20:24:17;8.38;71.19
76759;DHT22;65701;45.588;5.186;2023-03-14T20:26:43;8.39;71.02
76759;DHT22;65701;45.588;5.186;2023-03-14T20:29:17;8.41;70.96
76759;DHT22;65701;45.588;5.186;2023-03-14T20:31:43;8.41;70.97
76759;DHT22;65701;45.588;5.186;2023-03-14T20:34:08;8.42;70.95
76759;DHT22;65701;45.588;5.186;2023-03-14T20:36:34;8.44;70.93
76759;DHT22;65701;45.588;5.186;2023-03-14T20:39:00;8.35;71.38
76759;DHT22;65701;45.588;5.186;2023-03-14T20:41:26;8.35;71.60
76759;DHT22;65701;45.588;5.186;2023-03-14T20:47:13;8.29;71.70
76759;DHT22;65701;45.588;5.186;2023-03-14T20:49:39;8.31;71.65
76759;DHT22;65701;45.588;5.186;2023-03-14T20:52:04;8.35;71.86
76759;DHT22;65701;45.588;5.186;2023-03-14T20:54:31;8.35;71.92
76759;DHT22;65701;45.588;5.186;2023-03-14T20:56:59;8.32;71.97
76759;DHT22;65701;45.588;5.186;2023-03-14T20:59:24;8.34;72.07
76759;DHT22;65701;45.588;5.186;2023-03-14T21:02:04;8.32;72.41
76759;DHT22;65701;45.588;5.186;2023-03-14T21:04:30;8.34;72.64
76759;DHT22;65701;45.588;5.186;2023-03-14T21:06:56;8.34;72.63
76759;DHT22;65701;45.588;5.186;2023-03-14T21:09:25;8.37;72.57
76759;DHT22;65701;45.588;5.186;2023-03-14T21:11:51;8.41;72.39
76759;DHT22;65701;45.588;5.186;2023-03-14T21:14:17;8.41;72.18
76759;DHT22;65701;45.588;5.186;2023-03-14T21:16:54;8.41;72.08
76759;DHT22;65701;45.588;5.186;2023-03-14T21:22:52;8.39;72.36
76759;DHT22;65701;45.588;5.186;2023-03-14T21:25:18;8.39;72.21
76759;DHT22;65701;45.588;5.186;2023-03-14T21:27:52;8.45;72.12
76759;DHT22;65701;45.588;5.186;2023-03-14T21:30:18;8.45;71.98
76759;DHT22;65701;45.588;5.186;2023-03-14T21:32:44;8.50;71.85
76759;DHT22;65701;45.588;5.186;2023-03-14T21:35:09;8.46;72.16
76759;DHT22;65701;45.588;5.186;2023-03-14T21:37:36;8.44;72.48
76759;DHT22;65701;45.588;5.186;2023-03-14T21:40:01;8.41;72.39
76759;DHT22;65701;45.588;5.186;2023-03-14T21:42:28;8.41;72.29
76759;DHT22;65701;45.588;5.186;2023-03-14T21:44:53;8.44;72.02
76759;DHT22;65701;45.588;5.186;2023-03-14T21:47:19;8.46;71.69
76759;DHT22;65701;45.588;5.186;2023-03-14T21:49:48;8.49;71.54
76759;DHT22;65701;45.588;5.186;2023-03-14T21:52:14;8.50;71.28
76759;DHT22;65701;45.588;5.186;2023-03-14T21:54:40;8.53;71.06
76759;DHT22;65701;45.588;5.186;2023-03-14T22:04:04;8.59;70.50
76759;DHT22;65701;45.588;5.186;2023-03-14T22:06:30;8.60;70.39
76759;DHT22;65701;45.588;5.186;2023-03-14T22:08:55;8.62;70.28
76759;DHT22;65701;45.588;5.186;2023-03-14T22:11:22;8.63;70.13
76759;DHT22;65701;45.588;5.186;2023-03-14T22:13:47;8.65;69.99
76759;DHT22;65701;45.588;5.186;2023-03-14T22:16:14;8.66;69.93
76759;DHT22;65701;45.588;5.186;2023-03-14T22:18:39;8.67;69.99
